createdAt,value
2019-01-06T00:01:46.053Z,102232.52
2019-01-06T00:04:33.097Z,102230.84
2019-01-06T00:07:06.913Z,102231.27
2019-01-06T00:09:40.909Z,102229.91
2019-01-06T00:12:26.682Z,102232.11
2019-01-06T00:15:10.835Z,102229.52
2019-01-06T00:17:58.278Z,102226.47
2019-01-06T00:20:35.230Z,102235.16
2019-01-06T00:23:13.099Z,102229.55
2019-01-06T00:25:57.032Z,102231.24
2019-01-06T00:28:30.898Z,102227.77
2019-01-06T00:31:17.734Z,102231.28
2019-01-06T00:33:54.451Z,102241.67
2019-01-06T00:36:25.696Z,102238.20
2019-01-06T00:39:12.661Z,102239.47
2019-01-06T00:41:46.752Z,102236.92
2019-01-06T00:44:17.927Z,102240.37
2019-01-06T00:47:05.193Z,102240.36
2019-01-06T00:52:27.484Z,102241.67
2019-01-06T00:55:05.544Z,102241.66
2019-01-06T00:57:51.337Z,102239.06
2019-01-06T01:00:24.954Z,102242.48
2019-01-06T01:03:09.199Z,102245.53
2019-01-06T01:05:38.513Z,102249.01
2019-01-06T01:08:12.603Z,102252.50
2019-01-06T01:10:46.192Z,102248.14
2019-01-06T01:13:23.058Z,102255.92
2019-01-06T01:16:12.601Z,102249.44
2019-01-06T01:18:55.602Z,102247.71
2019-01-06T01:21:29.438Z,102252.05
2019-01-06T01:24:09.145Z,102257.25
2019-01-06T01:26:48.024Z,102257.70
2019-01-06T01:29:16.669Z,102246.88
2019-01-06T01:31:59.629Z,102254.23
2019-01-06T01:34:47.045Z,102246.87
2019-01-06T01:37:18.235Z,102254.64
2019-01-06T01:39:49.398Z,102260.72
2019-01-06T01:42:36.915Z,102256.41
2019-01-06T01:45:08.451Z,102264.65
2019-01-06T01:47:55.748Z,102266.34
2019-01-06T01:50:42.741Z,102260.28
2019-01-06T01:53:14.730Z,102267.66
2019-01-06T01:55:57.686Z,102263.75
2019-01-06T01:58:45.125Z,102263.30
2019-01-06T02:01:16.314Z,102260.70
2019-01-06T02:03:47.475Z,102263.36
2019-01-06T02:06:19.453Z,102259.88
2019-01-06T02:09:07.193Z,102262.89
2019-01-06T02:11:56.195Z,102259.88
2019-01-06T02:14:27.450Z,102263.75
2019-01-06T02:17:03.091Z,102255.52
2019-01-06T02:19:37.065Z,102260.74
2019-01-06T02:22:10.899Z,102261.19
2019-01-06T02:24:42.074Z,102267.25
2019-01-06T02:27:20.343Z,102274.62
2019-01-06T02:30:07.181Z,102267.65
2019-01-06T02:32:51.056Z,102276.79
2019-01-06T02:35:38.076Z,102268.98
2019-01-06T02:38:25.064Z,102278.05
2019-01-06T02:41:08.821Z,102275.89
2019-01-06T02:43:49.049Z,102274.16
2019-01-06T02:46:20.212Z,102272.42
2019-01-06T02:48:58.207Z,102272.84
2019-01-06T02:51:29.369Z,102276.29
2019-01-06T02:54:00.577Z,102276.29
2019-01-06T02:56:44.744Z,102268.92
2019-01-06T02:59:18.594Z,102272.83
2019-01-06T03:01:52.425Z,102270.20
2019-01-06T03:04:41.187Z,102270.67
2019-01-06T03:07:30.248Z,102270.68
2019-01-06T03:10:16.317Z,102270.69
2019-01-06T03:12:50.381Z,102271.96
2019-01-06T03:15:30.305Z,102270.25
2019-01-06T03:18:07.186Z,102270.70
2019-01-06T03:20:41.051Z,102268.10
2019-01-06T03:23:12.241Z,102268.95
2019-01-06T03:25:43.413Z,102265.07
2019-01-06T03:28:14.587Z,102264.19
2019-01-06T03:30:52.674Z,102263.33
2019-01-06T03:33:24.082Z,102260.73
2019-01-06T03:36:11.107Z,102258.13
2019-01-06T03:38:58.247Z,102250.77
2019-01-06T03:41:31.885Z,102248.61
2019-01-06T03:44:18.822Z,102255.52
2019-01-06T03:47:07.579Z,102246.87
2019-01-06T03:49:54.514Z,102252.52
2019-01-06T03:52:43.499Z,102249.03
2019-01-06T03:55:18.205Z,102244.72
2019-01-06T03:57:49.370Z,102243.84
2019-01-06T04:00:36.702Z,102239.95
2019-01-06T04:03:23.007Z,102240.37
2019-01-06T04:06:10.248Z,102241.70
2019-01-06T04:08:57.295Z,102237.86
2019-01-06T04:11:29.542Z,102238.70
2019-01-06T04:14:03.390Z,102236.53
2019-01-06T04:16:35.761Z,102236.95
2019-01-06T04:19:23.039Z,102231.76
2019-01-06T04:22:10.043Z,102234.76
2019-01-06T04:24:56.768Z,102236.92
2019-01-06T04:27:43.587Z,102232.57
2019-01-06T04:30:20.478Z,102233.86
2019-01-06T04:33:07.806Z,102231.69
2019-01-06T04:35:41.380Z,102235.56
2019-01-06T04:38:10.731Z,102239.07
2019-01-06T04:40:57.562Z,102234.77
2019-01-06T04:43:28.749Z,102235.64
2019-01-06T04:46:02.649Z,102240.81
2019-01-06T04:48:45.241Z,102244.27
2019-01-06T04:51:22.336Z,102236.91
2019-01-06T04:53:53.772Z,102235.64
2019-01-06T04:56:40.824Z,102247.72
2019-01-06T04:59:24.698Z,102236.47
2019-01-06T05:02:01.828Z,102240.37
2019-01-06T05:04:33.017Z,102236.91
2019-01-06T05:07:06.576Z,102236.02
2019-01-06T05:09:49.282Z,102241.71
2019-01-06T05:12:29.121Z,102241.70
2019-01-06T05:15:08.875Z,102246.00
2019-01-06T05:17:46.139Z,102236.91
2019-01-06T05:20:33.259Z,102243.44
2019-01-06T05:23:14.376Z,102246.48
2019-01-06T05:25:48.098Z,102247.33
2019-01-06T05:28:17.424Z,102240.81
2019-01-06T05:30:56.985Z,102235.19
2019-01-06T05:33:39.986Z,102238.66
2019-01-06T05:36:17.046Z,102236.50
2019-01-06T05:38:50.916Z,102236.09
2019-01-06T05:41:27.856Z,102241.30
2019-01-06T05:43:59.746Z,102248.19
2019-01-06T05:46:45.801Z,102239.98
2019-01-06T05:49:29.878Z,102240.41
2019-01-06T05:52:18.623Z,102242.55
2019-01-06T05:55:01.625Z,102246.02
2019-01-06T05:57:36.332Z,102243.87
2019-01-06T06:00:09.172Z,102251.22
2019-01-06T06:02:55.124Z,102244.28
2019-01-06T06:05:39.067Z,102254.73
2019-01-06T06:08:16.273Z,102259.44
2019-01-06T06:10:47.455Z,102260.33
2019-01-06T06:13:34.207Z,102260.75
2019-01-06T06:16:14.078Z,102256.41
2019-01-06T06:18:45.935Z,102256.81
2019-01-06T06:21:26.231Z,102266.80
2019-01-06T06:24:13.263Z,102258.14
2019-01-06T06:27:00.362Z,102265.53
2019-01-06T06:29:47.471Z,102270.25
2019-01-06T06:32:19.646Z,102273.28
2019-01-06T06:34:59.471Z,102286.27
2019-01-06T06:37:45.471Z,102281.53
2019-01-06T06:40:22.523Z,102283.24
2019-01-06T06:42:52.069Z,102280.19
2019-01-06T06:45:23.255Z,102277.58
2019-01-06T06:47:54.422Z,102277.58
2019-01-06T06:50:41.189Z,102276.29
2019-01-06T06:53:18.141Z,102279.34
2019-01-06T06:56:04.418Z,102288.41
2019-01-06T06:58:38.008Z,102287.08
2019-01-06T07:01:22.201Z,102295.31
2019-01-06T07:03:59.773Z,102299.23
2019-01-06T07:06:29.092Z,102300.53
2019-01-06T07:09:18.064Z,102302.25
2019-01-06T07:12:05.294Z,102304.84
2019-01-06T07:14:52.426Z,102306.56
2019-01-06T07:17:45.076Z,102305.70
2019-01-06T07:20:23.176Z,102313.50
2019-01-06T07:22:52.466Z,102315.65
2019-01-06T07:25:25.170Z,102319.59
2019-01-06T07:28:02.462Z,102320.87
2019-01-06T07:30:45.336Z,102319.56
2019-01-06T07:33:32.266Z,102329.09
2019-01-06T07:36:19.325Z,102326.90
2019-01-06T07:39:06.741Z,102335.13
2019-01-06T07:41:40.842Z,102335.98
2019-01-06T07:44:12.854Z,102341.63
2019-01-06T07:46:58.623Z,102341.63
2019-01-06T07:49:45.524Z,102351.17
2019-01-06T07:52:22.686Z,102356.78
2019-01-06T07:54:59.374Z,102360.25
2019-01-06T07:57:30.536Z,102359.37
2019-01-06T08:00:17.797Z,102365.02
2019-01-06T08:02:51.622Z,102364.16
2019-01-06T08:05:20.924Z,102371.07
2019-01-06T08:07:55.721Z,102372.81
2019-01-06T08:10:42.520Z,102370.20
2019-01-06T08:13:13.714Z,102370.64
2019-01-06T08:16:00.683Z,102378.84
2019-01-06T08:18:31.988Z,102376.27
2019-01-06T08:21:18.828Z,102383.64
2019-01-06T08:23:59.700Z,102389.66
2019-01-06T08:26:36.348Z,102389.26
2019-01-06T08:29:12.982Z,102387.92
2019-01-06T08:31:44.235Z,102387.07
2019-01-06T08:34:31.373Z,102390.09
2019-01-06T08:37:18.609Z,102390.52
2019-01-06T08:39:47.945Z,102390.11
2019-01-06T08:42:34.941Z,102394.88
2019-01-06T08:45:04.797Z,102395.28
2019-01-06T08:47:51.890Z,102397.45
2019-01-06T08:50:23.068Z,102399.61
2019-01-06T08:53:10.373Z,102397.47
2019-01-06T08:55:41.574Z,102401.36
2019-01-06T08:58:15.740Z,102400.05
2019-01-06T09:00:47.195Z,102406.97
2019-01-06T09:03:24.086Z,102407.84
2019-01-06T09:06:00.918Z,102404.81
2019-01-06T09:08:47.909Z,102413.05
2019-01-06T09:11:21.806Z,102408.28
2019-01-06T09:13:52.960Z,102406.11
2019-01-06T09:16:22.258Z,102413.91
2019-01-06T09:19:09.301Z,102415.20
2019-01-06T09:21:50.203Z,102411.73
2019-01-06T09:24:24.328Z,102407.82
2019-01-06T09:27:11.653Z,102407.84
2019-01-06T09:29:58.626Z,102415.63
2019-01-06T09:32:32.493Z,102410.44
2019-01-06T09:35:11.690Z,102413.45
2019-01-06T09:37:57.874Z,102410.84
2019-01-06T09:40:47.551Z,102410.86
2019-01-06T09:43:21.649Z,102412.59
2019-01-06T09:45:54.013Z,102415.19
2019-01-06T09:48:41.880Z,102415.20
2019-01-06T09:51:29.206Z,102413.47
2019-01-06T09:54:07.199Z,102414.31
2019-01-06T09:56:38.389Z,102415.63
2019-01-06T09:59:12.090Z,102423.86
2019-01-06T10:01:54.931Z,102418.65
2019-01-06T10:04:35.207Z,102421.23
2019-01-06T10:07:22.226Z,102422.97
2019-01-06T10:09:53.413Z,102424.72
2019-01-06T10:12:24.606Z,102425.12
2019-01-06T10:14:55.781Z,102434.23
2019-01-06T10:17:36.559Z,102426.88
2019-01-06T10:20:13.838Z,102428.61
2019-01-06T10:22:47.452Z,102430.76
2019-01-06T10:25:19.674Z,102431.63
2019-01-06T10:27:54.757Z,102437.25
2019-01-06T10:30:27.717Z,102434.25
2019-01-06T10:32:59.751Z,102434.25
2019-01-06T10:35:30.388Z,102438.12
2019-01-06T10:38:08.184Z,102427.72
2019-01-06T10:40:43.339Z,102431.17
2019-01-06T10:43:18.288Z,102436.38
2019-01-06T10:45:53.533Z,102437.23
2019-01-06T10:48:41.667Z,102441.98
2019-01-06T10:51:25.903Z,102432.06
2019-01-06T10:53:58.206Z,102436.38
2019-01-06T10:56:45.771Z,102438.53
2019-01-06T10:59:18.161Z,102439.39
2019-01-06T11:02:06.360Z,102443.73
2019-01-06T11:04:37.538Z,102447.20
2019-01-06T11:07:16.014Z,102448.06
2019-01-06T11:09:54.149Z,102448.05
2019-01-06T11:12:42.447Z,102448.05
2019-01-06T11:15:15.344Z,102449.80
2019-01-06T11:17:57.098Z,102443.71
2019-01-06T11:20:35.549Z,102452.39
2019-01-06T11:23:12.325Z,102454.11
2019-01-06T11:25:42.897Z,102451.52
2019-01-06T11:28:12.900Z,102447.61
2019-01-06T11:30:47.029Z,102454.55
2019-01-06T11:33:34.086Z,102448.03
2019-01-06T11:36:10.987Z,102446.30
2019-01-06T11:38:50.565Z,102449.34
2019-01-06T11:41:21.752Z,102443.30
2019-01-06T11:44:00.456Z,102449.78
2019-01-06T11:46:40.152Z,102448.91
2019-01-06T11:49:27.482Z,102449.34
2019-01-06T11:52:14.941Z,102450.20
2019-01-06T11:55:02.017Z,102449.75
2019-01-06T11:57:49.064Z,102446.75
2019-01-06T12:00:23.243Z,102444.17
2019-01-06T12:03:03.375Z,102438.11
2019-01-06T12:05:50.354Z,102438.09
2019-01-06T12:08:30.571Z,102432.47
2019-01-06T12:11:01.744Z,102425.55
2019-01-06T12:13:40.923Z,102434.64
2019-01-06T12:16:18.650Z,102432.05
2019-01-06T12:18:52.225Z,102434.19
2019-01-06T12:21:21.663Z,102433.77
2019-01-06T12:23:59.867Z,102431.59
2019-01-06T12:26:32.863Z,102427.70
2019-01-06T12:29:15.895Z,102435.95
2019-01-06T12:31:49.765Z,102430.76
2019-01-06T12:34:20.935Z,102431.19
2019-01-06T12:37:07.820Z,102435.48
2019-01-06T12:39:44.564Z,102432.89
2019-01-06T12:42:21.453Z,102427.70
2019-01-06T12:44:52.644Z,102425.11
2019-01-06T12:47:38.451Z,102432.48
2019-01-06T12:50:17.162Z,102433.34
2019-01-06T12:53:04.524Z,102436.38
2019-01-06T12:55:36.032Z,102430.33
2019-01-06T12:58:11.385Z,102435.06
2019-01-06T13:00:51.470Z,102435.08
2019-01-06T13:03:25.302Z,102435.91
2019-01-06T13:06:03.075Z,102436.78
2019-01-06T13:08:35.073Z,102436.76
2019-01-06T13:11:21.106Z,102438.93
2019-01-06T13:13:52.326Z,102440.23
2019-01-06T13:16:25.957Z,102444.55
2019-01-06T13:18:59.580Z,102442.42
2019-01-06T13:21:46.529Z,102442.41
2019-01-06T13:24:32.584Z,102442.83
2019-01-06T13:27:19.828Z,102444.58
2019-01-06T13:30:07.609Z,102441.98
2019-01-06T13:32:51.452Z,102444.13
2019-01-06T13:35:31.050Z,102445.00
2019-01-06T13:38:17.351Z,102451.94
2019-01-06T13:41:04.211Z,102448.44
2019-01-06T13:43:50.215Z,102451.06
2019-01-06T13:46:27.478Z,102452.34
2019-01-06T13:49:08.311Z,102454.49
2019-01-06T13:51:55.334Z,102457.09
2019-01-06T13:54:42.113Z,102460.13
2019-01-06T13:57:13.298Z,102461.02
2019-01-06T13:59:48.631Z,102461.44
2019-01-06T14:02:25.763Z,102457.11
2019-01-06T14:05:12.493Z,102457.10
2019-01-06T14:07:55.402Z,102456.23
2019-01-06T14:10:26.855Z,102459.73
2019-01-06T14:13:09.797Z,102466.63
2019-01-06T14:15:53.934Z,102467.06
2019-01-06T14:18:35.009Z,102464.02
2019-01-06T14:21:06.196Z,102471.42
2019-01-06T14:23:39.777Z,102465.80
2019-01-06T14:26:28.775Z,102472.68
2019-01-06T14:29:08.636Z,102474.42
2019-01-06T14:31:42.234Z,102474.84
2019-01-06T14:34:29.761Z,102471.34
2019-01-06T14:37:16.905Z,102477.02
2019-01-06T14:40:00.903Z,102477.44
2019-01-06T14:42:49.743Z,102474.83
2019-01-06T14:45:36.744Z,102473.11
2019-01-06T14:48:23.707Z,102482.61
2019-01-06T14:51:10.777Z,102487.83
2019-01-06T14:53:53.802Z,102489.14
2019-01-06T14:56:33.621Z,102488.27
2019-01-06T14:59:10.553Z,102487.86
2019-01-06T15:01:51.711Z,102493.46
2019-01-06T15:04:40.703Z,102499.52
2019-01-06T15:07:10.872Z,102494.33
2019-01-06T15:09:56.861Z,102496.50
2019-01-06T15:12:42.552Z,102494.33
2019-01-06T15:15:17.904Z,102499.55
2019-01-06T15:17:57.651Z,102502.58
2019-01-06T15:20:27.181Z,102501.69
2019-01-06T15:23:17.019Z,102503.42
2019-01-06T15:25:52.324Z,102504.70
2019-01-06T15:28:24.851Z,102506.90
2019-01-06T15:30:57.110Z,102500.84
2019-01-06T15:33:31.850Z,102495.22
2019-01-06T15:36:22.905Z,102503.89
2019-01-06T15:38:55.495Z,102499.14
2019-01-06T15:41:42.628Z,102505.17
2019-01-06T15:44:19.182Z,102523.38
2019-01-06T15:47:07.382Z,102526.83
2019-01-06T15:49:55.854Z,102516.02
2019-01-06T15:52:36.802Z,102526.42
2019-01-06T15:55:08.979Z,102525.54
2019-01-06T15:57:50.127Z,102532.91
2019-01-06T16:00:38.149Z,102532.48
2019-01-06T16:03:21.903Z,102527.72
2019-01-06T16:05:54.756Z,102525.12
2019-01-06T16:08:25.079Z,102521.21
2019-01-06T16:11:09.206Z,102519.04
2019-01-06T16:13:57.511Z,102528.16
2019-01-06T16:16:29.957Z,102531.16
2019-01-06T16:19:17.856Z,102528.57
2019-01-06T16:22:01.113Z,102528.99
2019-01-06T16:24:49.848Z,102534.66
2019-01-06T16:27:23.751Z,102532.46
2019-01-06T16:30:08.981Z,102527.72
2019-01-06T16:32:42.303Z,102529.88
2019-01-06T16:35:24.003Z,102522.49
2019-01-06T16:38:02.093Z,102527.69
2019-01-06T16:40:48.188Z,102532.03
2019-01-06T16:43:26.762Z,102534.20
2019-01-06T16:46:15.367Z,102536.80
2019-01-06T16:49:04.638Z,102536.36
2019-01-06T16:51:38.480Z,102532.44
2019-01-06T16:54:27.510Z,102525.53
2019-01-06T16:57:15.995Z,102531.59
2019-01-06T17:00:04.389Z,102531.59
2019-01-06T17:02:52.995Z,102538.95
2019-01-06T17:05:29.038Z,102541.06
2019-01-06T17:08:16.342Z,102547.58
2019-01-06T17:10:54.436Z,102555.34
2019-01-06T17:13:42.746Z,102547.12
2019-01-06T17:16:15.039Z,102550.15
2019-01-06T17:18:45.668Z,102548.46
2019-01-06T17:21:17.998Z,102551.05
2019-01-06T17:24:02.640Z,102549.31
2019-01-06T17:26:35.083Z,102551.44
2019-01-06T17:29:15.922Z,102557.09
2019-01-06T17:31:56.461Z,102553.18
2019-01-06T17:34:35.811Z,102561.83
2019-01-06T17:37:24.024Z,102557.92
2019-01-06T17:40:13.715Z,102554.91
2019-01-06T17:42:52.904Z,102554.49
2019-01-06T17:45:28.664Z,102553.62
2019-01-06T17:48:12.120Z,102551.85
2019-01-06T17:50:48.495Z,102555.33
2019-01-06T17:53:36.877Z,102552.73
2019-01-06T17:56:19.528Z,102559.22
2019-01-06T17:58:59.094Z,102566.13
2019-01-06T18:01:43.372Z,102557.45
2019-01-06T18:04:19.733Z,102561.33
2019-01-06T18:07:08.397Z,102568.30
2019-01-06T18:09:48.879Z,102566.57
2019-01-06T18:12:20.033Z,102565.30
2019-01-06T18:15:07.091Z,102574.39
2019-01-06T18:17:44.165Z,102580.43
2019-01-06T18:20:31.012Z,102579.60
2019-01-06T18:23:11.062Z,102576.56
2019-01-06T18:26:00.070Z,102575.27
2019-01-06T18:28:31.361Z,102575.27
2019-01-06T18:31:02.539Z,102574.81
2019-01-06T18:33:36.225Z,102573.95
2019-01-06T18:36:07.403Z,102578.28
2019-01-06T18:38:54.779Z,102581.30
2019-01-06T18:41:25.974Z,102583.05
2019-01-06T18:44:13.028Z,102588.20
2019-01-06T18:46:46.789Z,102586.48
2019-01-06T18:49:35.735Z,102589.08
2019-01-06T18:52:12.829Z,102589.95
2019-01-06T18:54:47.551Z,102587.80
2019-01-06T18:57:19.570Z,102595.59
2019-01-06T18:59:50.736Z,102588.69
2019-01-06T19:02:27.465Z,102589.95
2019-01-06T19:05:11.367Z,102588.23
2019-01-06T19:07:48.249Z,102591.25
2019-01-06T19:10:25.070Z,102592.95
2019-01-06T19:13:03.241Z,102584.34
2019-01-06T19:15:29.165Z,102587.80
2019-01-06T19:18:06.166Z,102585.63
2019-01-06T19:20:52.121Z,102589.95
2019-01-06T19:23:23.287Z,102590.38
2019-01-06T19:25:55.052Z,102588.61
2019-01-06T19:28:34.970Z,102589.48
2019-01-06T19:31:08.813Z,102592.51
2019-01-06T19:33:56.158Z,102588.64
2019-01-06T19:36:46.709Z,102588.64
2019-01-06T19:39:33.971Z,102590.34
2019-01-06T19:42:21.319Z,102597.69
2019-01-06T19:45:08.116Z,102600.30
2019-01-06T19:47:41.997Z,102599.86
2019-01-06T19:50:14.239Z,102602.90
2019-01-06T19:53:03.041Z,102600.30
2019-01-06T19:55:50.773Z,102600.30
2019-01-06T19:58:22.742Z,102598.98
2019-01-06T20:01:06.986Z,102598.56
2019-01-06T20:03:41.758Z,102600.31
2019-01-06T20:06:16.265Z,102599.87
2019-01-06T20:08:48.359Z,102594.69
2019-01-06T20:11:23.570Z,102595.56
2019-01-06T20:14:10.869Z,102596.41
2019-01-06T20:16:55.031Z,102599.00
2019-01-06T20:19:39.881Z,102591.67
2019-01-06T20:22:18.220Z,102591.68
2019-01-06T20:24:50.496Z,102591.25
2019-01-06T20:27:31.827Z,102591.23
2019-01-06T20:30:04.767Z,102596.86
2019-01-06T20:32:36.846Z,102592.09
2019-01-06T20:35:25.315Z,102593.81
2019-01-06T20:38:11.536Z,102602.91
2019-01-06T20:40:56.580Z,102604.22
2019-01-06T20:43:29.171Z,102603.36
2019-01-06T20:46:22.280Z,102602.48
2019-01-06T20:48:57.571Z,102598.19
2019-01-06T20:51:28.752Z,102602.95
2019-01-06T20:54:15.926Z,102605.09
2019-01-06T20:57:02.726Z,102608.99
2019-01-06T20:59:34.824Z,102604.22
2019-01-06T21:02:13.013Z,102603.39
2019-01-06T21:04:53.273Z,102609.89
2019-01-06T21:07:32.996Z,102605.98
2019-01-06T21:10:20.079Z,102608.16
2019-01-06T21:12:53.697Z,102605.97
2019-01-06T21:15:30.686Z,102607.27
2019-01-06T21:18:01.883Z,102606.86
2019-01-06T21:20:48.487Z,102612.46
2019-01-06T21:23:37.824Z,102609.00
2019-01-06T21:26:09.751Z,102610.73
2019-01-06T21:28:56.895Z,102605.11
2019-01-06T21:31:43.919Z,102612.88
2019-01-06T21:34:30.908Z,102615.48
2019-01-06T21:37:04.544Z,102615.03
2019-01-06T21:39:41.256Z,102618.52
2019-01-06T21:42:15.131Z,102610.73
2019-01-06T21:45:03.935Z,102614.64
2019-01-06T21:47:49.632Z,102615.94
2019-01-06T21:50:20.806Z,102616.78
2019-01-06T21:53:08.057Z,102618.08
2019-01-06T21:55:44.638Z,102618.08
2019-01-06T21:58:33.669Z,102619.80
2019-01-06T22:01:13.304Z,102617.20
2019-01-06T22:06:33.826Z,102618.06
2019-01-06T22:09:05.083Z,102618.92
2019-01-06T22:11:36.236Z,102618.06
2019-01-06T22:14:05.570Z,102611.15
2019-01-06T22:16:45.551Z,102609.87
2019-01-06T22:19:25.408Z,102610.28
2019-01-06T22:22:02.277Z,102610.73
2019-01-06T22:24:36.163Z,102612.45
2019-01-06T22:27:05.474Z,102607.68
2019-01-06T22:29:36.652Z,102607.26
2019-01-06T22:32:23.929Z,102606.82
2019-01-06T22:35:10.935Z,102609.40
2019-01-06T22:37:42.114Z,102605.50
2019-01-06T22:40:28.092Z,102604.20
2019-01-06T22:42:59.284Z,102606.79
2019-01-06T22:45:39.270Z,102604.20
2019-01-06T22:48:10.476Z,102602.89
2019-01-06T22:50:41.647Z,102603.36
2019-01-06T22:53:12.830Z,102600.30
2019-01-06T22:55:59.923Z,102600.73
2019-01-06T22:58:46.217Z,102599.87
2019-01-06T23:01:33.527Z,102601.59
2019-01-06T23:04:13.139Z,102595.98
2019-01-06T23:06:44.341Z,102597.27
2019-01-06T23:09:30.293Z,102597.69
2019-01-06T23:12:13.072Z,102596.42
2019-01-06T23:14:55.930Z,102598.55
2019-01-06T23:17:29.763Z,102598.12
2019-01-06T23:20:06.624Z,102592.48
2019-01-06T23:22:40.995Z,102592.50
2019-01-06T23:25:14.600Z,102596.39
2019-01-06T23:27:54.506Z,102597.27
2019-01-06T23:30:41.373Z,102593.80
2019-01-06T23:33:18.298Z,102596.38
2019-01-06T23:36:07.358Z,102590.78
2019-01-06T23:38:38.562Z,102594.69
2019-01-06T23:41:09.744Z,102598.05
2019-01-06T23:43:43.592Z,102601.09
2019-01-06T23:46:17.210Z,102600.69
2019-01-06T23:48:57.237Z,102602.85
2019-01-06T23:51:41.628Z,102602.84
2019-01-06T23:54:12.824Z,102609.77
2019-01-06T23:56:49.506Z,102615.83
2019-01-06T23:59:35.470Z,102610.22
